MMZO/ZLO METAR and TAF weather

Enter ICAO airport designator
Station Type Date Time Source
MMZO METAR 2018/12/13 19:42 UTC NOAA

MMZO 131942Z 26010KT 15SM SCT030 SCT250 29/22 A2991 RMK 8/504


Station Type Date Time Source
MMZO Decoded METAR 2018/12/13 19:42 UTC NOAA

Manzanillo International , Mexico (MMZO) 19-09N 104-34W
Dec 13, 2018 - 02:42 PM EST / 2018.12.13 1942 UTC
Wind: from the W (260 degrees) at 12 MPH (10 KT):0
Visibility: 15 mile(s):0
Sky conditions: partly cloudy
Temperature: 84 F (29 C)
Dew Point: 71 F (22 C)
Relative Humidity: 65%
Pressure (altimeter): 29.91 in. Hg (1012 hPa)
ob: MMZO 131942Z 26010KT 15SM SCT030 SCT250 29/22 A2991 RMK 8/504
cycle: 19

Station Type Date Time Source
MMZO TAF 2018/12/13 18:43 UTC NOAA

TAF MMZO 131635Z 1318/1418 26010KT P6SM SCT015 BKN250
FM140400 01005KT 6SM HZ SCT015 BKN250
FM141600 20006KT P6SM BKN250


Example: see airport list